Time;durP1;ratioP1;P1;durP2;ratioP2;P2;SDS_P1;SDS_P2;PMS_P1;PMS_P2;Temp;Humidity;BMP_temperature;BMP_pressure;BME280_temperature;BME280_humidity;BME280_pressure;Samples;Min_cycle;Max_cycle;Signal;HPM_P1;HPM_P2
2023/04/25 00:00:26;;;;;;;1.40;0.30;;;;;;;8.62;77.36;99632.69;105362;1259;82964;-60
2023/04/25 00:03:14;;;;;;;3.10;0.50;;;;;;;8.59;77.51;99629.64;105320;1257;73696;-60
2023/04/25 00:05:43;;;;;;;1.00;0.40;;;;;;;8.58;77.74;99629.52;105351;1260;69307;-59
2023/04/25 00:08:12;;;;;;;1.50;0.40;;;;;;;8.57;77.79;99628.01;105380;1256;69109;-60
2023/04/25 00:10:40;;;;;;;1.50;0.40;;;;;;;8.55;77.52;99626.70;105123;1260;74608;-60
2023/04/25 00:13:09;;;;;;;2.30;0.30;;;;;;;8.52;77.67;99631.34;105341;1256;82648;-60
2023/04/25 00:15:37;;;;;;;0.70;0.40;;;;;;;8.48;77.71;99629.77;105362;1257;73453;-60
2023/04/25 00:18:06;;;;;;;1.90;0.50;;;;;;;8.43;77.63;99634.48;105400;1258;69125;-59
2023/04/25 00:20:35;;;;;;;1.20;0.50;;;;;;;8.39;77.37;99637.59;105316;1259;69141;-59
2023/04/25 00:23:04;;;;;;;1.00;0.50;;;;;;;8.34;77.56;99632.55;105362;1259;73955;-59
2023/04/25 00:25:33;;;;;;;4.00;0.40;;;;;;;8.32;77.45;99633.18;105341;1259;82414;-59
2023/04/25 00:28:01;;;;;;;0.70;0.40;;;;;;;8.29;77.56;99632.42;105382;1259;73673;-59
2023/04/25 00:30:29;;;;;;;0.50;0.30;;;;;;;8.27;77.64;99633.53;105315;1255;69198;-60
2023/04/25 00:32:57;;;;;;;2.20;0.40;;;;;;;8.25;77.75;99632.56;105281;1257;69094;-60
2023/04/25 00:35:26;;;;;;;2.10;0.30;;;;;;;8.23;77.66;99632.12;105359;1258;74790;-60
2023/04/25 00:37:54;;;;;;;0.60;0.30;;;;;;;8.22;77.91;99630.23;105063;1256;83131;-60
2023/04/25 00:40:23;;;;;;;0.90;0.40;;;;;;;8.23;77.77;99632.83;105185;1260;74101;-60
2023/04/25 00:42:52;;;;;;;1.90;0.50;;;;;;;8.21;77.96;99634.14;105287;1256;69090;-60
2023/04/25 00:45:20;;;;;;;0.70;0.30;;;;;;;8.16;77.94;99634.84;105241;1255;69146;-60
2023/04/25 00:47:49;;;;;;;2.70;0.50;;;;;;;8.13;77.96;99636.17;105417;1257;74578;-60
2023/04/25 00:50:17;;;;;;;3.70;0.50;;;;;;;8.10;78.27;99638.23;105377;1258;82376;-60
2023/04/25 00:52:46;;;;;;;0.40;0.30;;;;;;;8.06;78.13;99642.01;105340;1259;73445;-60
2023/04/25 00:55:15;;;;;;;0.30;0.30;;;;;;;8.03;78.27;99641.23;105332;1258;69304;-60
2023/04/25 00:57:43;;;;;;;1.20;0.40;;;;;;;8.01;78.32;99645.83;105404;1256;69170;-60
2023/04/25 01:00:14;;;;;;;0.50;0.30;;;;;;;8.00;78.07;99646.08;105382;1259;74659;-60
2023/04/25 01:02:44;;;;;;;1.50;0.60;;;;;;;7.98;78.50;99651.54;105359;1257;82630;-60
2023/04/25 01:05:13;;;;;;;2.40;0.40;;;;;;;7.97;78.46;99653.33;105313;1259;72205;-60
2023/04/25 01:07:41;;;;;;;3.10;0.60;;;;;;;7.95;78.34;99650.95;105400;1257;69211;-60
2023/04/25 01:10:10;;;;;;;1.50;0.60;;;;;;;7.95;78.41;99651.13;105308;1257;69178;-59
2023/04/25 01:12:38;;;;;;;1.30;0.70;;;;;;;7.96;78.51;99650.95;105218;1260;72887;-59
2023/04/25 01:15:06;;;;;;;0.80;0.60;;;;;;;7.94;78.40;99649.42;105410;1257;83459;-59
2023/04/25 01:17:35;;;;;;;1.80;0.50;;;;;;;7.92;78.52;99646.71;105091;1257;72827;-59
2023/04/25 01:20:05;;;;;;;1.40;0.60;;;;;;;7.90;78.60;99646.80;105388;1260;69190;-59
2023/04/25 01:22:33;;;;;;;0.80;0.70;;;;;;;7.89;78.77;99647.36;105336;1256;69221;-60
2023/04/25 01:25:02;;;;;;;1.00;0.60;;;;;;;7.87;78.56;99649.88;105382;1259;74118;-59
2023/04/25 01:27:31;;;;;;;1.90;0.90;;;;;;;7.86;78.51;99644.33;105387;1257;83848;-59
2023/04/25 01:29:59;;;;;;;0.90;0.50;;;;;;;7.84;78.29;99648.39;105385;1259;72738;-60
2023/04/25 01:32:29;;;;;;;1.00;0.50;;;;;;;7.82;78.47;99648.84;105165;1260;69315;-59
2023/04/25 01:34:57;;;;;;;0.70;0.40;;;;;;;7.81;78.51;99652.86;105153;1259;69260;-59
2023/04/25 01:37:26;;;;;;;1.50;0.60;;;;;;;7.83;78.72;99651.05;105397;1259;73862;-59
2023/04/25 01:39:55;;;;;;;0.50;0.40;;;;;;;7.84;78.78;99649.13;105095;1257;83384;-59
2023/04/25 01:42:23;;;;;;;1.10;0.70;;;;;;;7.85;78.68;99653.43;105405;1256;72659;-59
2023/04/25 01:44:51;;;;;;;1.10;0.70;;;;;;;7.87;78.68;99653.88;105277;1256;69126;-59
2023/04/25 01:47:20;;;;;;;0.90;0.60;;;;;;;7.87;78.83;99650.73;105324;1256;69024;-59
2023/04/25 01:49:48;;;;;;;2.40;0.70;;;;;;;7.89;78.69;99649.45;105204;1257;74902;-59
2023/04/25 01:52:16;;;;;;;1.10;0.70;;;;;;;7.89;78.76;99648.77;105220;1260;83409;-59
2023/04/25 01:54:45;;;;;;;2.00;0.80;;;;;;;7.89;78.78;99650.48;105193;1259;73818;-59
2023/04/25 01:57:14;;;;;;;0.80;0.70;;;;;;;7.88;78.43;99649.14;105138;1260;69139;-60
2023/04/25 01:59:44;;;;;;;2.00;0.90;;;;;;;7.87;78.22;99651.45;105286;1257;69075;-61
2023/04/25 02:02:35;;;;;;;1.70;0.90;;;;;;;7.87;78.50;99647.98;105162;1255;74909;-61
2023/04/25 02:05:05;;;;;;;0.90;0.70;;;;;;;7.84;78.54;99652.58;105428;1259;83123;-60
2023/04/25 02:07:37;;;;;;;0.90;0.70;;;;;;;7.82;78.35;99651.61;105112;1255;72719;-59
2023/04/25 02:10:06;;;;;;;2.10;0.90;;;;;;;7.81;78.39;99655.48;105200;1257;69107;-59
2023/04/25 02:12:39;;;;;;;1.10;0.90;;;;;;;7.80;78.54;99659.16;105190;1257;69199;-60
2023/04/25 02:15:22;;;;;;;2.30;1.00;;;;;;;7.79;78.68;99654.00;105358;1255;75202;-59
2023/04/25 02:17:55;;;;;;;1.50;0.90;;;;;;;7.76;78.54;99658.44;105343;1257;82540;-60
2023/04/25 02:20:24;;;;;;;2.70;1.50;;;;;;;7.74;78.61;99656.96;105230;1257;72717;-60
2023/04/25 02:22:53;;;;;;;1.60;1.50;;;;;;;7.72;78.43;99657.04;105159;1257;69089;-58
2023/04/25 02:25:22;;;;;;;2.40;1.50;;;;;;;7.70;78.78;99655.71;105395;1258;69202;-58
2023/04/25 02:27:51;;;;;;;2.40;1.60;;;;;;;7.71;78.51;99657.09;105367;1259;75039;-58
2023/04/25 02:30:19;;;;;;;4.40;1.80;;;;;;;7.70;78.59;99652.92;105174;1257;83495;-59
2023/04/25 02:32:47;;;;;;;3.40;1.60;;;;;;;7.69;78.61;99652.98;105319;1257;73758;-59
2023/04/25 02:35:16;;;;;;;2.90;1.80;;;;;;;7.69;78.46;99655.60;105332;1254;69083;-58
2023/04/25 02:37:44;;;;;;;2.80;1.70;;;;;;;7.68;78.52;99655.64;105194;1255;69222;-58
2023/04/25 02:40:14;;;;;;;1.90;1.70;;;;;;;7.67;78.72;99652.36;105348;1259;75051;-59
2023/04/25 02:42:42;;;;;;;3.90;1.90;;;;;;;7.67;78.58;99654.98;105326;1259;83419;-59
2023/04/25 02:45:11;;;;;;;2.60;1.80;;;;;;;7.66;78.71;99654.33;105281;1259;74197;-58
2023/04/25 02:47:39;;;;;;;3.50;1.90;;;;;;;7.65;78.61;99652.96;105330;1259;69199;-58
2023/04/25 02:50:08;;;;;;;4.40;2.30;;;;;;;7.63;78.55;99652.33;105389;1259;69209;-58
2023/04/25 02:52:36;;;;;;;7.50;2.50;;;;;;;7.61;78.59;99649.47;105394;1259;73887;-58
2023/04/25 02:55:13;;;;;;;2.80;2.20;;;;;;;7.58;78.38;99649.89;105303;1259;83389;-58
2023/04/25 02:57:41;;;;;;;3.40;2.40;;;;;;;7.55;78.34;99647.20;105229;1256;72738;-59
2023/04/25 03:00:14;;;;;;;4.40;2.50;;;;;;;7.53;78.42;99648.52;105294;1256;69180;-58
2023/04/25 03:02:42;;;;;;;;;;;;;;;7.50;78.39;99647.05;105346;1259;69221;-58
2023/04/25 03:05:10;;;;;;;4.60;2.40;;;;;;;7.46;78.40;99643.92;105155;1255;74959;-58
2023/04/25 03:07:40;;;;;;;3.90;2.70;;;;;;;7.43;78.31;99648.02;105366;1257;83576;-59
2023/04/25 03:10:10;;;;;;;3.90;2.30;;;;;;;7.40;78.35;99646.21;105361;1256;73986;-58
2023/04/25 03:12:39;;;;;;;2.60;2.10;;;;;;;7.36;78.40;99646.34;105123;1257;69180;-59
2023/04/25 03:15:07;;;;;;;3.70;2.30;;;;;;;7.34;78.32;99648.00;105227;1256;69174;-58
2023/04/25 03:17:36;;;;;;;3.90;2.40;;;;;;;7.33;78.71;99651.85;105174;1257;74660;-58
2023/04/25 03:20:08;;;;;;;3.10;2.40;;;;;;;7.32;78.44;99648.95;105135;1260;83245;-58
2023/04/25 03:22:37;;;;;;;5.00;2.50;;;;;;;7.29;78.47;99646.25;105181;1256;73851;-59
2023/04/25 03:25:06;;;;;;;4.50;2.70;;;;;;;7.27;78.76;99646.35;105092;1259;69275;-59
2023/04/25 03:27:35;;;;;;;5.60;2.70;;;;;;;7.26;78.59;99644.29;105352;1256;69215;-58
2023/04/25 03:30:04;;;;;;;2.90;2.30;;;;;;;7.24;78.65;99647.11;105323;1257;75193;-58
2023/04/25 03:32:33;;;;;;;3.90;2.80;;;;;;;7.22;78.69;99651.20;105165;1256;83496;-58
2023/04/25 03:35:02;;;;;;;4.50;2.50;;;;;;;7.19;78.53;99654.08;105167;1259;72742;-58
2023/04/25 03:37:31;;;;;;;3.50;2.50;;;;;;;7.16;78.75;99655.41;105218;1256;69140;-58
2023/04/25 03:40:00;;;;;;;5.00;2.60;;;;;;;7.13;78.60;99658.79;105117;1256;69139;-59
2023/04/25 03:42:40;;;;;;;3.30;2.40;;;;;;;7.12;78.92;99656.58;105184;1256;74476;-59
2023/04/25 03:45:11;;;;;;;3.60;2.00;;;;;;;7.10;78.78;99652.31;105195;1257;83774;-58
2023/04/25 03:47:39;;;;;;;3.30;2.40;;;;;;;7.08;78.80;99656.71;105122;1257;73902;-58
2023/04/25 03:50:09;;;;;;;4.80;2.70;;;;;;;7.07;78.99;99650.86;105378;1255;69157;-58
2023/04/25 03:52:37;;;;;;;4.50;2.90;;;;;;;7.06;78.87;99652.10;105284;1255;69121;-58
2023/04/25 03:55:06;;;;;;;3.60;2.40;;;;;;;7.05;79.08;99653.71;105129;1257;75003;-58
2023/04/25 03:57:34;;;;;;;5.10;2.70;;;;;;;7.05;79.07;99653.18;105163;1260;83590;-58
2023/04/25 04:00:04;;;;;;;4.00;2.70;;;;;;;7.04;79.14;99658.44;105182;1259;72753;-58
2023/04/25 04:02:40;;;;;;;5.60;2.90;;;;;;;7.02;78.85;99660.40;105368;1257;69189;-58
2023/04/25 04:05:12;;;;;;;5.20;2.80;;;;;;;6.99;79.10;99662.77;105140;1256;69077;-59
2023/04/25 04:07:47;;;;;;;4.90;3.20;;;;;;;6.98;78.94;99665.74;105260;1256;74242;-59
2023/04/25 04:10:17;;;;;;;5.80;3.40;;;;;;;6.97;78.98;99667.02;105292;1257;83206;-59
2023/04/25 04:12:45;;;;;;;3.70;2.80;;;;;;;6.96;78.95;99669.46;105256;1260;72687;-58
2023/04/25 04:15:14;;;;;;;4.10;3.00;;;;;;;6.96;78.98;99674.52;105173;1258;69120;-59
2023/04/25 04:17:45;;;;;;;6.60;3.00;;;;;;;6.96;78.96;99675.05;105249;1259;69711;-57
2023/04/25 04:20:13;;;;;;;3.80;3.10;;;;;;;6.94;78.98;99676.31;105197;1255;74888;-59
2023/04/25 04:22:42;;;;;;;4.00;3.20;;;;;;;6.92;78.89;99684.88;105494;1256;83881;-59
2023/04/25 04:25:12;;;;;;;;;;;;;;;6.91;78.88;99687.86;105274;1256;73046;-58
2023/04/25 04:28:05;;;;;;;6.20;3.60;;;;;;;6.90;78.96;99690.16;105244;1255;69235;-59
2023/04/25 04:30:55;;;;;;;7.10;3.20;;;;;;;6.90;79.20;99687.73;105262;1259;69196;-59
2023/04/25 04:33:23;;;;;;;5.30;3.40;;;;;;;6.90;78.85;99688.95;105265;1256;74985;-58
2023/04/25 04:35:57;;;;;;;5.90;3.30;;;;;;;6.90;78.64;99685.64;105281;1257;83782;-59
2023/04/25 04:38:26;;;;;;;5.50;3.10;;;;;;;6.90;79.01;99689.11;105135;1256;73843;-58
2023/04/25 04:40:57;;;;;;;3.50;2.90;;;;;;;6.91;79.08;99688.20;105332;1255;69207;-59
2023/04/25 04:43:34;;;;;;;6.10;3.20;;;;;;;6.91;78.88;99686.79;105269;1256;69154;-59
2023/04/25 04:46:06;;;;;;;4.50;3.20;;;;;;;6.94;79.08;99688.83;105219;1259;74037;-59
2023/04/25 04:49:00;;;;;;;5.20;3.10;;;;;;;6.96;78.97;99692.23;105087;1256;83496;-58
2023/04/25 04:51:59;;;;;;;4.60;2.80;;;;;;;6.98;78.75;99694.27;104801;1263;72857;-60
2023/04/25 04:55:05;;;;;;;4.70;3.10;;;;;;;6.98;78.71;99693.73;104847;1261;69328;-60
2023/04/25 04:57:56;;;;;;;3.30;2.40;;;;;;;7.01;78.82;99693.62;105164;1259;69278;-61
2023/04/25 05:00:35;;;;;;;5.40;3.10;;;;;;;7.03;78.79;99693.02;105391;1256;75320;-55
2023/04/25 05:03:32;;;;;;;4.80;2.70;;;;;;;7.05;78.80;99693.67;105253;1256;81670;-59
2023/04/25 05:06:19;;;;;;;7.00;3.00;;;;;;;7.06;78.61;99691.71;105191;1257;73279;-58
2023/04/25 05:09:14;;;;;;;6.20;2.70;;;;;;;7.08;78.83;99692.68;105237;1259;69228;-58
2023/04/25 05:12:06;;;;;;;4.50;2.80;;;;;;;7.13;78.71;99692.17;105205;1256;69037;-56
2023/04/25 05:15:08;;;;;;;5.50;2.60;;;;;;;7.15;78.45;99683.23;104942;1257;74225;-58
2023/04/25 05:17:55;;;;;;;4.00;2.80;;;;;;;7.19;78.73;99684.66;105238;1259;83625;-59
2023/04/25 05:20:23;;;;;;;4.30;2.80;;;;;;;7.21;78.37;99686.35;105238;1259;73960;-59
2023/04/25 05:23:11;;;;;;;4.50;2.90;;;;;;;7.23;78.37;99687.83;105218;1259;69202;-60
2023/04/25 05:25:53;;;;;;;6.40;3.20;;;;;;;7.24;78.79;99681.36;105250;1255;69106;-60
2023/04/25 05:28:31;;;;;;;5.30;3.10;;;;;;;7.26;78.59;99676.25;105278;1256;74376;-58
2023/04/25 05:31:12;;;;;;;5.20;3.20;;;;;;;7.27;78.66;99675.55;105189;1260;82460;-58
2023/04/25 05:33:54;;;;;;;5.10;3.50;;;;;;;7.29;78.97;99675.45;105249;1257;73449;-60
2023/04/25 05:36:26;;;;;;;5.70;3.80;;;;;;;7.32;79.02;99674.66;105157;1257;69307;-60
2023/04/25 05:38:54;;;;;;;6.80;3.40;;;;;;;7.33;78.68;99675.47;105351;1255;69135;-59
2023/04/25 05:41:52;;;;;;;6.30;3.60;;;;;;;7.34;78.86;99676.65;105156;1261;75026;-59
2023/04/25 05:44:49;;;;;;;6.30;3.50;;;;;;;7.34;78.42;99674.57;104840;1256;83932;-59
2023/04/25 05:47:38;;;;;;;5.50;3.30;;;;;;;7.35;78.80;99677.48;104987;1257;75165;-59
2023/04/25 05:50:12;;;;;;;4.40;3.10;;;;;;;7.38;79.11;99681.58;105227;1256;69202;-59
2023/04/25 05:52:48;;;;;;;9.50;4.10;;;;;;;7.39;79.07;99683.96;105440;1256;69733;-59
2023/04/25 05:55:30;;;;;;;7.20;3.90;;;;;;;7.41;78.90;99685.45;105312;1259;74833;-59
2023/04/25 05:58:00;;;;;;;4.90;3.30;;;;;;;7.43;78.89;99686.09;105542;1259;83462;-59
2023/04/25 06:00:29;;;;;;;4.10;3.20;;;;;;;7.47;79.07;99686.13;105121;1258;73448;-59
2023/04/25 06:02:57;;;;;;;5.70;3.10;;;;;;;7.50;79.01;99685.65;105291;1259;69085;-55
2023/04/25 06:05:26;;;;;;;7.10;3.50;;;;;;;7.55;79.19;99690.71;105231;1256;69209;-57
2023/04/25 06:07:54;;;;;;;7.20;3.30;;;;;;;7.61;79.11;99689.10;105248;1256;73876;-57
2023/04/25 06:10:23;;;;;;;5.60;3.00;;;;;;;7.67;79.08;99689.77;105285;1256;83291;-59
2023/04/25 06:12:51;;;;;;;5.80;2.60;;;;;;;7.74;79.14;99687.40;105206;1259;72204;-59
2023/04/25 06:15:19;;;;;;;4.50;2.90;;;;;;;7.83;79.14;99682.36;105235;1257;69078;-57
2023/04/25 06:17:50;;;;;;;6.10;2.70;;;;;;;7.93;78.78;99679.90;104715;1261;69196;-55
2023/04/25 06:20:22;;;;;;;4.40;2.70;;;;;;;8.04;78.71;99677.21;104786;1261;74996;-58
2023/04/25 06:22:52;;;;;;;5.60;2.90;;;;;;;8.16;78.59;99678.86;104794;1260;83596;-59
2023/04/25 06:25:24;;;;;;;5.40;3.60;;;;;;;8.26;78.22;99680.55;107075;1262;73809;-60
2023/04/25 06:27:52;;;;;;;4.80;3.30;;;;;;;8.39;77.98;99680.42;104629;1267;69331;-59
2023/04/25 06:30:23;;;;;;;6.30;2.90;;;;;;;8.51;78.06;99679.43;104795;1262;69202;-59
2023/04/25 06:32:53;;;;;;;6.00;3.60;;;;;;;8.62;77.72;99678.64;104913;1265;73543;-59
2023/04/25 06:35:21;;;;;;;5.10;2.80;;;;;;;8.72;77.62;99675.60;104982;1256;83448;-60
2023/04/25 06:37:50;;;;;;;4.50;2.80;;;;;;;8.78;77.39;99677.64;105283;1259;73169;-59
2023/04/25 06:40:21;;;;;;;5.70;3.20;;;;;;;8.84;76.93;99681.39;105298;1259;69096;-59
2023/04/25 06:42:50;;;;;;;4.80;3.20;;;;;;;8.90;76.84;99680.63;105339;1256;69087;-60
2023/04/25 06:45:37;;;;;;;6.10;3.10;;;;;;;8.97;76.75;99683.64;105140;1255;73995;-59
2023/04/25 06:48:09;;;;;;;5.70;2.80;;;;;;;8.99;76.09;99682.37;105389;1258;83480;-60
2023/04/25 06:50:37;;;;;;;4.60;2.40;;;;;;;8.96;75.89;99680.88;105150;1256;73738;-59
2023/04/25 06:53:05;;;;;;;6.50;2.90;;;;;;;8.93;75.41;99689.73;105328;1259;69126;-59
2023/04/25 06:55:34;;;;;;;6.20;2.60;;;;;;;8.90;75.34;99684.64;105399;1256;69134;-59
2023/04/25 06:58:21;;;;;;;5.40;2.80;;;;;;;8.90;75.51;99682.36;105361;1255;74463;-61
2023/04/25 07:01:09;;;;;;;4.80;2.50;;;;;;;8.99;75.64;99681.84;105232;1256;84517;-61
2023/04/25 07:03:38;;;;;;;5.80;2.30;;;;;;;9.04;75.58;99675.16;105403;1258;73975;-62
2023/04/25 07:06:11;;;;;;;6.60;2.20;;;;;;;9.12;75.68;99672.54;105235;1257;69303;-61
2023/04/25 07:08:40;;;;;;;5.80;2.50;;;;;;;9.23;75.62;99669.84;105359;1257;69126;-61
2023/04/25 07:11:08;;;;;;;8.00;2.20;;;;;;;9.28;75.12;99669.23;105330;1259;74884;-60
2023/04/25 07:13:37;;;;;;;5.40;2.50;;;;;;;9.32;74.79;99665.07;105329;1257;83911;-58
2023/04/25 07:16:06;;;;;;;7.40;3.00;;;;;;;9.34;74.57;99665.86;105249;1256;74181;-58
2023/04/25 07:18:34;;;;;;;7.80;2.80;;;;;;;9.40;74.54;99662.27;105209;1256;69247;-59
2023/04/25 07:21:03;;;;;;;8.30;2.60;;;;;;;9.51;74.72;99665.65;105399;1255;69170;-59
2023/04/25 07:23:33;;;;;;;6.00;3.00;;;;;;;9.60;74.28;99669.07;105347;1257;74964;-59
2023/04/25 07:26:02;;;;;;;5.80;2.60;;;;;;;9.70;74.16;99666.55;105340;1256;83527;-59
2023/04/25 07:28:31;;;;;;;6.50;2.80;;;;;;;9.82;74.20;99668.63;105254;1259;73849;-59
2023/04/25 07:30:59;;;;;;;7.10;2.70;;;;;;;9.88;73.83;99672.16;105098;1262;69113;-59
2023/04/25 07:33:27;;;;;;;4.30;2.60;;;;;;;9.96;73.63;99670.59;105070;1256;69177;-59
2023/04/25 07:35:55;;;;;;;5.10;2.50;;;;;;;10.02;73.23;99673.08;105116;1261;73575;-59
2023/04/25 07:38:24;;;;;;;4.70;2.70;;;;;;;10.05;72.90;99668.04;105202;1262;83538;-59
2023/04/25 07:40:52;;;;;;;5.90;3.70;;;;;;;10.13;72.75;99669.64;105160;1257;73792;-59
2023/04/25 07:43:22;;;;;;;9.00;2.90;;;;;;;10.15;72.34;99668.14;105275;1255;69180;-59
2023/04/25 07:45:57;;;;;;;5.00;2.70;;;;;;;10.17;72.17;99672.58;105240;1259;69096;-59
2023/04/25 07:48:27;;;;;;;5.90;2.90;;;;;;;10.21;72.09;99675.35;105262;1256;74545;-59
2023/04/25 07:50:56;;;;;;;6.30;2.90;;;;;;;10.22;71.95;99675.64;105300;1255;82032;-58
2023/04/25 07:53:23;;;;;;;4.20;2.50;;;;;;;10.26;71.97;99675.27;105116;1260;72204;-59
2023/04/25 07:55:55;;;;;;;6.30;3.40;;;;;;;10.37;72.11;99675.14;105266;1259;69115;-59
2023/04/25 07:58:23;;;;;;;4.60;3.00;;;;;;;10.41;71.65;99676.70;105337;1257;69113;-59
2023/04/25 08:00:55;;;;;;;6.50;2.90;;;;;;;10.46;71.55;99674.21;105184;1257;74621;-59
2023/04/25 08:03:32;;;;;;;6.10;2.70;;;;;;;10.51;71.55;99673.41;105280;1258;83348;-59
2023/04/25 08:06:01;;;;;;;6.00;2.80;;;;;;;10.59;71.35;99675.48;105139;1260;73884;-59
2023/04/25 08:08:36;;;;;;;6.60;2.80;;;;;;;10.63;70.99;99673.91;105316;1256;69190;-59
2023/04/25 08:11:06;;;;;;;7.40;2.90;;;;;;;10.72;71.20;99667.52;105164;1256;69197;-59
2023/04/25 08:13:35;;;;;;;6.10;2.80;;;;;;;10.85;71.07;99672.63;105159;1257;74607;-59
2023/04/25 08:16:04;;;;;;;4.90;2.40;;;;;;;10.85;70.52;99677.35;105317;1257;83430;-59
2023/04/25 08:18:32;;;;;;;3.90;2.40;;;;;;;10.81;70.12;99677.04;105195;1260;73969;-59
2023/04/25 08:21:02;;;;;;;5.40;3.10;;;;;;;10.78;69.75;99681.23;105262;1256;69209;-59
2023/04/25 08:23:31;;;;;;;6.90;3.30;;;;;;;10.73;69.39;99681.45;105169;1262;69196;-59
2023/04/25 08:26:04;;;;;;;8.70;2.80;;;;;;;10.73;69.34;99683.73;105206;1257;74954;-59
2023/04/25 08:28:35;;;;;;;7.50;3.20;;;;;;;10.74;69.36;99682.61;105287;1256;83567;-59
2023/04/25 08:31:04;;;;;;;5.00;3.00;;;;;;;10.76;69.33;99684.08;105145;1262;72752;-59
2023/04/25 08:33:39;;;;;;;5.80;2.50;;;;;;;10.77;69.26;99685.46;105140;1262;69192;-59
2023/04/25 08:36:28;;;;;;;4.80;2.90;;;;;;;10.77;69.36;99683.33;105178;1259;69126;-59
2023/04/25 08:39:00;;;;;;;5.50;2.70;;;;;;;10.79;69.37;99686.40;104918;1263;75186;-58
2023/04/25 08:41:28;;;;;;;3.90;2.80;;;;;;;10.80;69.25;99682.35;104945;1261;83881;-60
2023/04/25 08:43:59;;;;;;;6.00;2.80;;;;;;;10.80;69.21;99690.38;104836;1262;73970;-59
2023/04/25 08:46:28;;;;;;;5.60;2.90;;;;;;;10.91;68.99;99685.77;104816;1263;69178;-59
2023/04/25 08:49:18;;;;;;;7.80;3.10;;;;;;;11.19;69.53;99685.09;104783;1262;69336;-59
2023/04/25 08:51:47;;;;;;;6.80;3.00;;;;;;;11.39;69.09;99684.44;104850;1265;74402;-60
2023/04/25 08:54:16;;;;;;;6.00;2.90;;;;;;;11.47;68.71;99685.90;104908;1263;82891;-59
2023/04/25 08:57:03;;;;;;;5.50;2.00;;;;;;;11.51;67.73;99691.50;104846;1265;71908;-59
2023/04/25 08:59:32;;;;;;;5.60;2.00;;;;;;;11.43;67.04;99692.45;105152;1261;69193;-60
2023/04/25 09:02:03;;;;;;;4.30;1.90;;;;;;;11.47;66.81;99695.36;105271;1259;69192;-59
2023/04/25 09:04:32;;;;;;;2.60;1.30;;;;;;;11.58;66.26;99697.05;105270;1255;74159;-59
2023/04/25 09:07:00;;;;;;;3.80;1.80;;;;;;;11.78;66.30;99686.77;105093;1257;82510;-59
2023/04/25 09:09:29;;;;;;;5.40;1.80;;;;;;;12.18;66.86;99687.76;105246;1256;73745;-60
2023/04/25 09:11:59;;;;;;;4.00;1.50;;;;;;;12.56;66.56;99687.05;105277;1259;69138;-60
2023/04/25 09:14:28;;;;;;;4.70;1.40;;;;;;;12.78;65.52;99698.05;105184;1261;69899;-45
2023/04/25 09:17:19;;;;;;;5.30;2.20;;;;;;;12.91;64.17;99695.37;105130;1257;75157;-45
2023/04/25 09:19:51;;;;;;;4.80;1.70;;;;;;;13.05;64.09;99698.63;105191;1256;83456;-45
2023/04/25 09:22:26;;;;;;;3.90;1.40;;;;;;;13.00;62.83;99692.42;105192;1259;73928;-45
2023/04/25 09:24:55;;;;;;;3.10;1.40;;;;;;;12.94;62.40;99699.40;105248;1257;69948;-45
2023/04/25 09:27:26;;;;;;;2.30;1.50;;;;;;;12.83;62.14;99699.73;105197;1259;70468;-45
2023/04/25 09:30:16;;;;;;;3.10;1.40;;;;;;;12.70;62.10;99695.17;105229;1258;73149;-45
2023/04/25 09:33:10;;;;;;;3.80;1.70;;;;;;;12.65;61.98;99697.73;105172;1257;83593;-45
2023/04/25 09:35:43;;;;;;;2.40;1.70;;;;;;;12.78;62.45;99695.98;105179;1257;73777;-45
2023/04/25 09:38:18;;;;;;;2.90;1.50;;;;;;;12.90;62.04;99703.49;105189;1256;69932;-45
2023/04/25 09:41:02;;;;;;;2.60;1.30;;;;;;;13.00;61.88;99703.66;105245;1257;69986;-45
2023/04/25 09:43:46;;;;;;;2.20;1.40;;;;;;;13.13;61.86;99703.05;105154;1262;74084;-45
2023/04/25 09:46:17;;;;;;;2.40;1.40;;;;;;;13.15;61.07;99703.12;105298;1259;83282;-45
2023/04/25 09:48:50;;;;;;;1.90;1.00;;;;;;;13.04;60.56;99703.96;105324;1257;73743;-46
2023/04/25 09:51:26;;;;;;;1.70;0.90;;;;;;;12.98;60.55;99708.31;105231;1256;69993;-46
2023/04/25 09:53:54;;;;;;;3.30;1.00;;;;;;;12.84;59.50;99710.17;105132;1262;70063;-45
2023/04/25 09:56:35;;;;;;;2.20;1.40;;;;;;;12.72;59.61;99709.96;105141;1257;75057;-45
2023/04/25 09:59:06;;;;;;;1.90;1.10;;;;;;;12.76;59.95;99709.91;105181;1256;83869;-45
2023/04/25 10:01:39;;;;;;;2.70;1.30;;;;;;;12.84;60.15;99710.85;105117;1256;74027;-46
2023/04/25 10:04:11;;;;;;;3.30;1.40;;;;;;;12.91;59.92;99715.19;105286;1257;70035;-45
2023/04/25 10:07:13;;;;;;;3.30;1.60;;;;;;;13.08;59.92;99714.06;105007;1255;70016;-45
2023/04/25 10:09:47;;;;;;;4.10;1.20;;;;;;;13.21;59.92;99715.39;105171;1256;74933;-46
2023/04/25 10:12:16;;;;;;;2.80;1.10;;;;;;;13.23;59.58;99715.62;105299;1256;81872;-46
2023/04/25 10:14:45;;;;;;;2.90;1.30;;;;;;;13.19;59.06;99715.46;105311;1258;73550;-45
2023/04/25 10:17:14;;;;;;;2.10;1.20;;;;;;;13.08;59.00;99718.78;105162;1261;70255;-46
2023/04/25 10:19:42;;;;;;;1.60;1.10;;;;;;;12.93;58.49;99718.42;105250;1259;70095;-45
2023/04/25 10:22:13;;;;;;;2.90;1.20;;;;;;;12.83;58.52;99716.89;105307;1256;75067;-45
2023/04/25 10:24:41;;;;;;;3.60;1.40;;;;;;;12.87;58.73;99715.59;105251;1257;82933;-46
2023/04/25 10:27:10;;;;;;;1.90;1.10;;;;;;;12.98;58.73;99717.27;105131;1257;73770;-46
2023/04/25 10:29:43;;;;;;;1.70;1.00;;;;;;;13.12;58.58;99711.16;105315;1259;69999;-46
2023/04/25 10:32:11;;;;;;;2.20;1.20;;;;;;;13.12;58.30;99709.23;105270;1259;69996;-45
2023/04/25 10:34:46;;;;;;;2.30;1.00;;;;;;;13.12;58.18;99709.55;105335;1258;73167;-45
2023/04/25 10:37:15;;;;;;;2.00;0.90;;;;;;;12.97;57.49;99712.06;105283;1259;83656;-46
2023/04/25 10:39:43;;;;;;;2.20;1.00;;;;;;;12.75;57.44;99708.24;105220;1255;71826;-45
2023/04/25 10:42:11;;;;;;;2.80;1.10;;;;;;;12.51;57.13;99714.64;105321;1259;69975;-45
2023/04/25 10:44:40;;;;;;;1.90;1.00;;;;;;;12.32;57.45;99709.57;105264;1259;69999;-45
2023/04/25 10:47:09;;;;;;;2.20;0.90;;;;;;;12.23;57.94;99706.55;105316;1259;74664;-46
2023/04/25 10:49:41;;;;;;;2.40;1.10;;;;;;;12.29;58.54;99708.88;105248;1259;83591;-45
2023/04/25 10:52:15;;;;;;;1.80;0.90;;;;;;;12.46;58.86;99704.80;105204;1259;73097;-46
2023/04/25 10:54:46;;;;;;;2.70;1.10;;;;;;;12.63;58.53;99703.11;105149;1257;69896;-45
2023/04/25 10:57:36;;;;;;;3.70;1.50;;;;;;;12.87;58.46;99707.34;105261;1257;70012;-45
2023/04/25 11:00:08;;;;;;;2.60;1.30;;;;;;;13.13;58.25;99705.15;105271;1259;75293;-46
2023/04/25 11:02:37;;;;;;;2.90;1.20;;;;;;;13.27;58.13;99705.06;105280;1257;82593;-46
2023/04/25 11:05:07;;;;;;;4.30;1.30;;;;;;;13.39;57.73;99704.00;105268;1256;73636;-46
2023/04/25 11:07:51;;;;;;;4.60;1.20;;;;;;;13.40;57.27;99699.58;105272;1258;69976;-46
2023/04/25 11:10:37;;;;;;;1.80;1.00;;;;;;;13.45;57.37;99703.80;105118;1257;70160;-45
2023/04/25 11:13:05;;;;;;;2.30;1.00;;;;;;;13.48;56.88;99702.95;105260;1259;73866;-46
2023/04/25 11:15:33;;;;;;;5.30;2.90;;;;;;;13.46;56.28;99713.77;105321;1259;84214;-46
2023/04/25 11:18:02;;;;;;;3.40;1.70;;;;;;;13.49;56.66;99706.76;105227;1259;73899;-46
2023/04/25 11:20:31;;;;;;;2.70;1.10;;;;;;;13.62;56.54;99701.90;105276;1256;71500;-46
2023/04/25 11:22:59;;;;;;;1.90;0.80;;;;;;;13.72;56.35;99698.48;105274;1257;70087;-46
2023/04/25 11:25:29;;;;;;;3.30;1.30;;;;;;;13.90;56.56;99697.71;105275;1259;74910;-47
2023/04/25 11:27:59;;;;;;;4.80;1.10;;;;;;;14.05;56.26;99697.67;105155;1259;82358;-45
2023/04/25 11:30:30;;;;;;;3.50;1.20;;;;;;;14.00;55.63;99697.45;105213;1257;73809;-45
2023/04/25 11:32:58;;;;;;;1.50;0.90;;;;;;;13.78;55.16;99704.77;105187;1257;69909;-46
2023/04/25 11:35:27;;;;;;;3.00;1.20;;;;;;;13.54;55.09;99706.93;105081;1261;154671;-46
2023/04/25 11:37:55;;;;;;;2.00;1.00;;;;;;;13.36;55.44;99704.20;105234;1261;73717;-46
2023/04/25 11:40:23;;;;;;;3.10;1.20;;;;;;;13.23;55.31;99713.15;105211;1257;82459;-46
2023/04/25 11:42:51;;;;;;;1.90;1.10;;;;;;;13.02;54.80;99713.31;105192;1256;72768;-46
2023/04/25 11:45:22;;;;;;;;;;;;;;;12.83;55.01;99713.73;105251;1259;69908;-46
2023/04/25 11:47:51;;;;;;;2.70;1.30;;;;;;;12.69;54.95;99711.54;105273;1257;69976;-46
2023/04/25 11:50:19;;;;;;;2.70;1.20;;;;;;;13.13;55.61;99714.98;105310;1259;75161;-46
2023/04/25 11:52:48;;;;;;;2.80;1.20;;;;;;;13.69;55.70;99709.77;105268;1259;82913;-46
2023/04/25 11:55:18;;;;;;;3.80;1.20;;;;;;;13.84;55.58;99708.62;105236;1257;73381;-46